Haverhill, New Hampshire
Current Conditions -  °F | °C
As of 9:55 PM on Saturday 25 Oct 2014 (Local Time) from K1P1 Reporting Station
Overcast Overcast  
Wind Chill: 49°   Ceiling: 6000
Heat Index: 49°   Visibility: 10mi
Dew Point: 49°   Wind: 0mph
Humidity: 100%   Direction: NA
Pressure: 29.49"   Gusts: NA
Location:  44.03°N, 72.06°W
Report Text: K1P1 260155Z AUTO 00000KT 10SM SCT047 BKN060 OVC110 09/09 A2949 RMK AO2 T00930093
Loading
Personal Weather Stations






























Interactive Weather Map
Tropical Storm Tracking
New forecast layout! Learn more

10-Day Weather Forecast

Advertisements
Track Severe Weather on mobile